MST,Max TemperatureF,Mean TemperatureF,Min TemperatureF,Max Dew PointF,MeanDew PointF,Min DewpointF,Max Humidity, Mean Humidity, Min Humidity, Max Sea Level PressureIn, Mean Sea Level PressureIn, Min Sea Level PressureIn, Max VisibilityMiles, Mean VisibilityMiles, Min VisibilityMiles, Max Wind SpeedMPH, Mean Wind SpeedMPH, Max Gust SpeedMPH,PrecipitationIn, CloudCover, Events, WindDirDegrees
2014-1-1,31,17,3,25,20,2,92,82,72,30.35,30.10,29.87,10,4,0,29,13,36,T,7,Fog-Snow,313
2014-1-2,37,22,6,18,13,5,76,60,43,30.36,30.22,30.04,10,10,10,30,16,38,0.00,0,,241
2014-1-3,45,33,20,25,19,15,63,50,37,29.98,29.74,29.53,10,8,0,43,24,53,T,4,Fog-Snow,269
2014-1-4,20,6,-9,18,4,-11,92,84,76,30.23,29.87,29.70,10,2,0,16,6,20,0.06,6,Fog-Snow,43
2014-1-5,9,-2,-14,3,-6,-19,87,69,51,30.56,30.15,29.89,10,4,0,28,12,33,T,6,Snow,337
2014-1-6,26,6,-14,12,3,-17,72,61,50,30.48,30.34,30.12,10,10,10,30,17,39,0.00,2,,255
2014-1-7,35,27,19,21,13,6,81,60,38,30.12,30.03,29.93,10,10,10,30,16,37,0.00,3,,251
2014-1-8,32,23,13,20,16,10,92,78,63,30.09,30.03,29.94,10,10,10,22,11,26,0.00,2,,205
2014-1-9,31,25,18,21,16,7,81,69,57,29.96,29.82,29.69,10,9,2,31,18,39,T,3,Snow,235
2014-1-10,28,21,13,17,13,3,74,68,61,29.94,29.76,29.64,10,7,1,39,23,46,0.00,3,Snow,280
2014-1-11,39,32,24,26,23,16,75,64,52,30.00,29.83,29.50,10,9,2,51,29,60,T,1,,243
2014-1-12,38,28,17,27,16,8,81,67,52,29.98,29.72,29.51,10,9,2,44,22,51,T,2,Snow,276
2014-1-13,33,25,17,19,15,8,68,61,53,30.04,29.99,29.94,10,10,10,49,33,60,0.00,2,,264
2014-1-14,29,22,14,19,16,11,92,78,63,30.44,30.27,30.02,10,4,0,35,16,41,T,7,Fog-Snow,337
2014-1-15,38,27,15,20,16,11,68,56,43,30.33,30.17,30.04,10,10,10,38,22,47,0.00,0,,258
2014-1-16,33,24,15,14,12,10,74,58,41,30.33,30.24,30.09,10,10,10,35,20,41,0.00,0,,314
2014-1-17,43,27,11,16,12,7,84,59,33,30.31,30.19,30.07,10,10,10,29,11,35,0.00,0,,256
2014-1-18,43,29,15,19,13,8,67,49,30,30.31,30.22,30.13,10,10,10,28,14,35,0.00,0,,276
2014-1-19,47,38,28,16,13,8,50,38,26,30.16,30.05,29.95,10,10,10,36,20,46,0.00,0,,239
2014-1-20,37,26,14,18,10,5,65,49,32,30.48,30.28,29.99,10,10,10,33,13,40,0.00,0,,315
2014-1-21,50,35,19,8,2,-8,52,31,9,30.34,30.21,30.09,10,10,10,35,16,41,0.00,0,,237
2014-1-22,40,27,14,19,13,6,92,60,27,30.22,30.12,29.97,10,6,0,17,8,22,0.04,3,Fog-Snow,103
2014-1-23,18,5,-9,16,2,-8,100,81,61,30.71,30.41,30.16,10,5,0,10,4,13,T,3,Fog-Snow,273
2014-1-24,43,20,-4,23,9,-6,91,64,37,30.58,30.39,30.22,10,10,10,26,11,33,0.00,0,,263
2014-1-25,49,34,18,20,15,10,67,49,31,30.29,30.08,29.92,10,10,10,28,12,33,0.00,0,,244
2014-1-26,44,28,12,22,13,8,84,56,28,30.06,29.93,29.75,10,7,1,38,15,48,T,5,Snow,325
2014-1-27,13,3,-8,9,6,-14,92,78,64,30.32,30.02,29.91,10,2,0,17,6,21,0.07,7,Fog-Snow,339
2014-1-28,18,3,-13,8,-4,-17,78,62,46,30.43,30.30,30.13,10,10,10,26,10,33,0.00,1,,241
2014-1-29,34,24,14,30,20,3,82,66,49,30.09,29.76,29.43,10,8,1,38,21,46,T,4,Snow,230
2014-1-30,32,27,22,28,23,19,92,84,75,29.70,29.61,29.52,10,5,0,32,14,39,0.02,8,Fog-Snow,266
2014-1-31,24,15,6,18,13,5,100,83,65,29.82,29.74,29.65,10,9,0,17,6,22,0.00,4,Fog,141